sensor_id;sensor_type;location;lat;lon;timestamp;temperature;humidity
36442;DHT22;73131;50.820;16.274;2024-01-30T00:02:42;4.10;99.90
36442;DHT22;73131;50.820;16.274;2024-01-30T00:05:49;4.10;99.90
36442;DHT22;73131;50.820;16.274;2024-01-30T00:09:08;4.00;99.90
36442;DHT22;73131;50.820;16.274;2024-01-30T00:12:11;3.90;99.90
36442;DHT22;73131;50.820;16.274;2024-01-30T00:15:34;3.90;99.90
36442;DHT22;73131;50.820;16.274;2024-01-30T00:18:43;3.80;99.90
36442;DHT22;73131;50.820;16.274;2024-01-30T00:22:10;3.80;99.90
36442;DHT22;73131;50.820;16.274;2024-01-30T00:25:13;3.80;99.90
36442;DHT22;73131;50.820;16.274;2024-01-30T00:28:24;3.80;99.90
36442;DHT22;73131;50.820;16.274;2024-01-30T00:31:30;3.80;99.90
36442;DHT22;73131;50.820;16.274;2024-01-30T00:34:36;3.80;99.90
36442;DHT22;73131;50.820;16.274;2024-01-30T00:37:37;3.80;99.90
36442;DHT22;73131;50.820;16.274;2024-01-30T00:40:40;3.90;99.90
36442;DHT22;73131;50.820;16.274;2024-01-30T00:43:41;4.00;99.90
36442;DHT22;73131;50.820;16.274;2024-01-30T00:46:49;4.30;99.90
36442;DHT22;73131;50.820;16.274;2024-01-30T00:49:52;4.50;99.90
36442;DHT22;73131;50.820;16.274;2024-01-30T00:52:55;4.60;99.90
36442;DHT22;73131;50.820;16.274;2024-01-30T00:56:03;4.60;99.90
36442;DHT22;73131;50.820;16.274;2024-01-30T00:59:04;4.60;99.90
36442;DHT22;73131;50.820;16.274;2024-01-30T01:02:09;4.50;99.90
36442;DHT22;73131;50.820;16.274;2024-01-30T01:05:19;4.50;99.90
36442;DHT22;73131;50.820;16.274;2024-01-30T01:08:30;4.40;99.90
36442;DHT22;73131;50.820;16.274;2024-01-30T01:11:33;4.30;99.90
36442;DHT22;73131;50.820;16.274;2024-01-30T01:14:41;4.10;99.90
36442;DHT22;73131;50.820;16.274;2024-01-30T01:17:52;4.10;99.90
36442;DHT22;73131;50.820;16.274;2024-01-30T01:21:02;4.00;99.90
36442;DHT22;73131;50.820;16.274;2024-01-30T01:24:10;4.00;99.90
36442;DHT22;73131;50.820;16.274;2024-01-30T01:27:13;4.00;99.90
36442;DHT22;73131;50.820;16.274;2024-01-30T01:30:16;3.90;99.90
36442;DHT22;73131;50.820;16.274;2024-01-30T01:33:32;3.90;99.90
36442;DHT22;73131;50.820;16.274;2024-01-30T01:36:37;3.90;99.90
36442;DHT22;73131;50.820;16.274;2024-01-30T01:39:41;4.00;99.90
36442;DHT22;73131;50.820;16.274;2024-01-30T01:42:44;4.00;99.90
36442;DHT22;73131;50.820;16.274;2024-01-30T01:45:51;4.10;99.90
36442;DHT22;73131;50.820;16.274;2024-01-30T01:49:04;4.10;99.90
36442;DHT22;73131;50.820;16.274;2024-01-30T01:52:06;4.20;99.90
36442;DHT22;73131;50.820;16.274;2024-01-30T01:55:12;4.30;99.90
36442;DHT22;73131;50.820;16.274;2024-01-30T01:58:15;4.30;99.90
36442;DHT22;73131;50.820;16.274;2024-01-30T02:01:34;4.30;99.90
36442;DHT22;73131;50.820;16.274;2024-01-30T02:04:44;4.30;99.90
36442;DHT22;73131;50.820;16.274;2024-01-30T02:07:48;4.40;99.90
36442;DHT22;73131;50.820;16.274;2024-01-30T02:11:03;4.30;99.90
36442;DHT22;73131;50.820;16.274;2024-01-30T02:14:14;4.40;99.90
36442;DHT22;73131;50.820;16.274;2024-01-30T02:17:20;4.50;99.90
36442;DHT22;73131;50.820;16.274;2024-01-30T02:20:24;4.40;99.90
36442;DHT22;73131;50.820;16.274;2024-01-30T02:23:30;4.40;99.90
36442;DHT22;73131;50.820;16.274;2024-01-30T02:26:38;4.20;99.90
36442;DHT22;73131;50.820;16.274;2024-01-30T02:29:46;4.20;99.90
36442;DHT22;73131;50.820;16.274;2024-01-30T02:32:50;4.10;99.90
36442;DHT22;73131;50.820;16.274;2024-01-30T02:35:58;4.10;99.90
36442;DHT22;73131;50.820;16.274;2024-01-30T02:39:02;4.10;99.90
36442;DHT22;73131;50.820;16.274;2024-01-30T02:42:05;4.10;99.90
36442;DHT22;73131;50.820;16.274;2024-01-30T02:45:09;4.10;99.90
36442;DHT22;73131;50.820;16.274;2024-01-30T02:48:14;4.10;99.90
36442;DHT22;73131;50.820;16.274;2024-01-30T02:51:23;4.10;99.90
36442;DHT22;73131;50.820;16.274;2024-01-30T02:54:23;4.20;99.90
36442;DHT22;73131;50.820;16.274;2024-01-30T02:57:30;4.10;99.90
36442;DHT22;73131;50.820;16.274;2024-01-30T03:00:34;4.20;99.90
36442;DHT22;73131;50.820;16.274;2024-01-30T03:03:40;4.10;99.90
36442;DHT22;73131;50.820;16.274;2024-01-30T03:06:46;4.20;99.90
36442;DHT22;73131;50.820;16.274;2024-01-30T03:10:11;4.20;99.90
36442;DHT22;73131;50.820;16.274;2024-01-30T03:13:19;4.20;99.90
36442;DHT22;73131;50.820;16.274;2024-01-30T03:16:25;4.20;99.90
36442;DHT22;73131;50.820;16.274;2024-01-30T03:19:28;4.20;99.90
36442;DHT22;73131;50.820;16.274;2024-01-30T03:22:39;4.10;99.90
36442;DHT22;73131;50.820;16.274;2024-01-30T03:25:42;4.10;99.90
36442;DHT22;73131;50.820;16.274;2024-01-30T03:28:46;4.10;99.90
36442;DHT22;73131;50.820;16.274;2024-01-30T03:31:49;4.00;99.90
36442;DHT22;73131;50.820;16.274;2024-01-30T03:34:57;4.00;99.90
36442;DHT22;73131;50.820;16.274;2024-01-30T03:38:05;4.00;99.90
36442;DHT22;73131;50.820;16.274;2024-01-30T03:41:12;3.90;99.90
36442;DHT22;73131;50.820;16.274;2024-01-30T03:44:16;3.90;99.90
36442;DHT22;73131;50.820;16.274;2024-01-30T03:47:21;3.90;99.90
36442;DHT22;73131;50.820;16.274;2024-01-30T03:50:33;3.90;99.90
36442;DHT22;73131;50.820;16.274;2024-01-30T03:53:55;3.80;99.90
36442;DHT22;73131;50.820;16.274;2024-01-30T03:56:58;3.80;99.90
36442;DHT22;73131;50.820;16.274;2024-01-30T04:00:04;3.80;99.90
36442;DHT22;73131;50.820;16.274;2024-01-30T04:03:08;3.80;99.90
36442;DHT22;73131;50.820;16.274;2024-01-30T04:06:12;3.70;99.90
36442;DHT22;73131;50.820;16.274;2024-01-30T04:09:17;3.70;99.90
36442;DHT22;73131;50.820;16.274;2024-01-30T04:12:24;3.70;99.90
36442;DHT22;73131;50.820;16.274;2024-01-30T04:15:33;3.70;99.90
36442;DHT22;73131;50.820;16.274;2024-01-30T04:18:36;3.70;99.90
36442;DHT22;73131;50.820;16.274;2024-01-30T04:21:47;3.70;99.90
36442;DHT22;73131;50.820;16.274;2024-01-30T04:24:49;3.70;99.90
36442;DHT22;73131;50.820;16.274;2024-01-30T04:27:49;3.70;99.90
36442;DHT22;73131;50.820;16.274;2024-01-30T04:30:55;3.60;99.90
36442;DHT22;73131;50.820;16.274;2024-01-30T04:33:57;3.70;99.90
36442;DHT22;73131;50.820;16.274;2024-01-30T04:37:04;3.70;99.90
36442;DHT22;73131;50.820;16.274;2024-01-30T04:40:17;3.70;99.90
36442;DHT22;73131;50.820;16.274;2024-01-30T04:43:27;3.70;99.90
36442;DHT22;73131;50.820;16.274;2024-01-30T04:46:33;3.70;99.90
36442;DHT22;73131;50.820;16.274;2024-01-30T04:49:38;3.70;99.90
36442;DHT22;73131;50.820;16.274;2024-01-30T04:52:41;3.70;99.90
36442;DHT22;73131;50.820;16.274;2024-01-30T04:55:54;3.70;99.90
36442;DHT22;73131;50.820;16.274;2024-01-30T04:58:58;3.70;99.90
36442;DHT22;73131;50.820;16.274;2024-01-30T05:02:02;3.80;99.90
36442;DHT22;73131;50.820;16.274;2024-01-30T05:05:11;3.80;99.90
36442;DHT22;73131;50.820;16.274;2024-01-30T05:08:28;3.90;99.90
36442;DHT22;73131;50.820;16.274;2024-01-30T05:11:29;4.00;99.90
36442;DHT22;73131;50.820;16.274;2024-01-30T05:14:32;3.90;99.90
36442;DHT22;73131;50.820;16.274;2024-01-30T05:17:44;3.90;99.90
36442;DHT22;73131;50.820;16.274;2024-01-30T05:20:49;3.90;99.90
36442;DHT22;73131;50.820;16.274;2024-01-30T05:23:52;3.90;99.90
36442;DHT22;73131;50.820;16.274;2024-01-30T05:26:58;3.80;99.90
36442;DHT22;73131;50.820;16.274;2024-01-30T05:30:01;3.70;99.90
36442;DHT22;73131;50.820;16.274;2024-01-30T05:33:05;3.60;99.90
36442;DHT22;73131;50.820;16.274;2024-01-30T05:36:13;3.50;99.90
36442;DHT22;73131;50.820;16.274;2024-01-30T05:39:17;3.40;99.90
36442;DHT22;73131;50.820;16.274;2024-01-30T05:42:25;3.40;99.90
36442;DHT22;73131;50.820;16.274;2024-01-30T05:45:28;3.40;99.90
36442;DHT22;73131;50.820;16.274;2024-01-30T05:48:31;3.30;99.90
36442;DHT22;73131;50.820;16.274;2024-01-30T05:51:41;3.30;99.90
36442;DHT22;73131;50.820;16.274;2024-01-30T05:54:46;3.40;99.90
36442;DHT22;73131;50.820;16.274;2024-01-30T05:57:50;3.30;99.90
36442;DHT22;73131;50.820;16.274;2024-01-30T06:00:58;3.30;99.90
36442;DHT22;73131;50.820;16.274;2024-01-30T06:04:04;3.30;99.90
36442;DHT22;73131;50.820;16.274;2024-01-30T06:07:13;3.30;99.90
36442;DHT22;73131;50.820;16.274;2024-01-30T06:10:20;3.20;99.90
36442;DHT22;73131;50.820;16.274;2024-01-30T06:13:30;3.20;99.90
36442;DHT22;73131;50.820;16.274;2024-01-30T06:16:43;3.30;99.90
36442;DHT22;73131;50.820;16.274;2024-01-30T06:19:48;3.30;99.90
36442;DHT22;73131;50.820;16.274;2024-01-30T06:23:04;3.30;99.90
36442;DHT22;73131;50.820;16.274;2024-01-30T06:26:16;3.40;99.90
36442;DHT22;73131;50.820;16.274;2024-01-30T06:29:24;3.40;99.90
36442;DHT22;73131;50.820;16.274;2024-01-30T06:32:32;3.50;99.90
36442;DHT22;73131;50.820;16.274;2024-01-30T06:35:40;3.50;99.90
36442;DHT22;73131;50.820;16.274;2024-01-30T06:38:48;3.50;99.90
36442;DHT22;73131;50.820;16.274;2024-01-30T06:41:58;3.60;99.90
36442;DHT22;73131;50.820;16.274;2024-01-30T06:45:04;3.60;99.90
36442;DHT22;73131;50.820;16.274;2024-01-30T06:48:12;3.70;99.90
36442;DHT22;73131;50.820;16.274;2024-01-30T06:51:17;3.70;99.90
36442;DHT22;73131;50.820;16.274;2024-01-30T06:54:25;3.70;99.90
36442;DHT22;73131;50.820;16.274;2024-01-30T06:57:32;3.80;99.90
36442;DHT22;73131;50.820;16.274;2024-01-30T07:00:42;4.00;99.90
36442;DHT22;73131;50.820;16.274;2024-01-30T07:03:48;4.20;99.90
36442;DHT22;73131;50.820;16.274;2024-01-30T07:06:59;4.40;99.90
36442;DHT22;73131;50.820;16.274;2024-01-30T07:10:02;4.50;99.90
36442;DHT22;73131;50.820;16.274;2024-01-30T07:13:06;4.70;99.90
36442;DHT22;73131;50.820;16.274;2024-01-30T07:16:09;4.80;99.90
36442;DHT22;73131;50.820;16.274;2024-01-30T07:19:14;4.90;99.90
36442;DHT22;73131;50.820;16.274;2024-01-30T07:22:26;5.10;99.90
36442;DHT22;73131;50.820;16.274;2024-01-30T07:25:32;5.30;99.90
36442;DHT22;73131;50.820;16.274;2024-01-30T07:28:39;5.60;99.90
36442;DHT22;73131;50.820;16.274;2024-01-30T07:31:55;5.80;99.90
36442;DHT22;73131;50.820;16.274;2024-01-30T07:35:00;6.00;99.90
36442;DHT22;73131;50.820;16.274;2024-01-30T07:38:02;6.00;99.90
36442;DHT22;73131;50.820;16.274;2024-01-30T07:41:11;6.00;99.90
36442;DHT22;73131;50.820;16.274;2024-01-30T07:44:16;6.00;99.90
36442;DHT22;73131;50.820;16.274;2024-01-30T07:47:37;6.20;99.90
36442;DHT22;73131;50.820;16.274;2024-01-30T07:50:50;6.10;99.90
36442;DHT22;73131;50.820;16.274;2024-01-30T07:53:58;6.00;99.90
36442;DHT22;73131;50.820;16.274;2024-01-30T07:57:06;6.10;99.90
36442;DHT22;73131;50.820;16.274;2024-01-30T08:00:14;6.40;99.90
36442;DHT22;73131;50.820;16.274;2024-01-30T08:03:17;6.70;99.90
36442;DHT22;73131;50.820;16.274;2024-01-30T08:06:27;7.00;99.90
36442;DHT22;73131;50.820;16.274;2024-01-30T08:09:40;7.30;99.90
36442;DHT22;73131;50.820;16.274;2024-01-30T08:12:45;7.40;99.90
36442;DHT22;73131;50.820;16.274;2024-01-30T08:15:58;7.50;99.90
36442;DHT22;73131;50.820;16.274;2024-01-30T08:19:05;7.50;99.90
36442;DHT22;73131;50.820;16.274;2024-01-30T08:22:27;7.70;99.90
36442;DHT22;73131;50.820;16.274;2024-01-30T08:25:32;8.00;99.90
36442;DHT22;73131;50.820;16.274;2024-01-30T08:28:33;8.40;99.90
36442;DHT22;73131;50.820;16.274;2024-01-30T08:31:57;8.30;99.90
36442;DHT22;73131;50.820;16.274;2024-01-30T08:35:01;8.40;99.90
36442;DHT22;73131;50.820;16.274;2024-01-30T08:38:08;8.50;99.90
36442;DHT22;73131;50.820;16.274;2024-01-30T08:41:25;8.80;99.70
36442;DHT22;73131;50.820;16.274;2024-01-30T08:44:29;8.90;99.40
36442;DHT22;73131;50.820;16.274;2024-01-30T08:47:33;8.90;99.10
36442;DHT22;73131;50.820;16.274;2024-01-30T08:50:34;9.20;98.70
36442;DHT22;73131;50.820;16.274;2024-01-30T08:53:39;9.80;97.40
36442;DHT22;73131;50.820;16.274;2024-01-30T08:56:50;10.50;95.90
36442;DHT22;73131;50.820;16.274;2024-01-30T08:59:54;11.60;93.60
36442;DHT22;73131;50.820;16.274;2024-01-30T09:03:02;12.00;91.50
36442;DHT22;73131;50.820;16.274;2024-01-30T09:06:07;13.50;88.50
36442;DHT22;73131;50.820;16.274;2024-01-30T09:09:08;15.10;79.20
36442;DHT22;73131;50.820;16.274;2024-01-30T09:12:12;16.50;70.90
36442;DHT22;73131;50.820;16.274;2024-01-30T09:15:18;17.40;64.20
36442;DHT22;73131;50.820;16.274;2024-01-30T09:18:24;17.70;62.30
36442;DHT22;73131;50.820;16.274;2024-01-30T09:21:44;18.50;59.40
36442;DHT22;73131;50.820;16.274;2024-01-30T09:25:09;20.00;54.80
36442;DHT22;73131;50.820;16.274;2024-01-30T09:28:22;21.20;51.60
36442;DHT22;73131;50.820;16.274;2024-01-30T09:31:33;21.70;47.10
36442;DHT22;73131;50.820;16.274;2024-01-30T09:34:37;21.80;47.10
36442;DHT22;73131;50.820;16.274;2024-01-30T09:37:45;21.60;45.60
36442;DHT22;73131;50.820;16.274;2024-01-30T09:40:54;21.60;44.90
36442;DHT22;73131;50.820;16.274;2024-01-30T09:44:11;21.30;45.30
36442;DHT22;73131;50.820;16.274;2024-01-30T09:47:35;20.80;45.10
36442;DHT22;73131;50.820;16.274;2024-01-30T09:50:51;20.80;45.40
36442;DHT22;73131;50.820;16.274;2024-01-30T09:53:56;20.90;44.70
36442;DHT22;73131;50.820;16.274;2024-01-30T09:57:14;20.80;44.20
36442;DHT22;73131;50.820;16.274;2024-01-30T10:00:20;21.60;43.90
36442;DHT22;73131;50.820;16.274;2024-01-30T10:03:29;21.80;43.20
36442;DHT22;73131;50.820;16.274;2024-01-30T10:06:35;22.20;42.50
36442;DHT22;73131;50.820;16.274;2024-01-30T10:09:39;22.20;42.10
36442;DHT22;73131;50.820;16.274;2024-01-30T10:12:47;22.20;41.80
36442;DHT22;73131;50.820;16.274;2024-01-30T10:15:52;21.40;42.40
36442;DHT22;73131;50.820;16.274;2024-01-30T10:19:09;20.70;43.20
36442;DHT22;73131;50.820;16.274;2024-01-30T10:22:14;21.30;42.70
36442;DHT22;73131;50.820;16.274;2024-01-30T10:25:18;22.50;42.10
36442;DHT22;73131;50.820;16.274;2024-01-30T10:28:26;23.30;40.20
36442;DHT22;73131;50.820;16.274;2024-01-30T10:31:35;22.40;40.90
36442;DHT22;73131;50.820;16.274;2024-01-30T10:34:44;23.00;40.50
36442;DHT22;73131;50.820;16.274;2024-01-30T10:37:57;23.60;38.80
36442;DHT22;73131;50.820;16.274;2024-01-30T10:41:04;22.60;39.80
36442;DHT22;73131;50.820;16.274;2024-01-30T10:44:19;23.00;39.70
36442;DHT22;73131;50.820;16.274;2024-01-30T10:47:36;23.50;39.50
36442;DHT22;73131;50.820;16.274;2024-01-30T10:50:50;22.80;39.60
36442;DHT22;73131;50.820;16.274;2024-01-30T10:53:58;22.80;40.20
36442;DHT22;73131;50.820;16.274;2024-01-30T10:57:11;22.40;40.30
36442;DHT22;73131;50.820;16.274;2024-01-30T11:00:16;22.60;40.10
36442;DHT22;73131;50.820;16.274;2024-01-30T11:03:26;22.30;39.90
36442;DHT22;73131;50.820;16.274;2024-01-30T11:06:41;21.60;40.40
36442;DHT22;73131;50.820;16.274;2024-01-30T11:09:54;21.30;40.50
36442;DHT22;73131;50.820;16.274;2024-01-30T11:13:13;21.60;41.40
36442;DHT22;73131;50.820;16.274;2024-01-30T11:16:42;22.20;40.10
36442;DHT22;73131;50.820;16.274;2024-01-30T11:19:46;21.50;41.10
36442;DHT22;73131;50.820;16.274;2024-01-30T11:22:53;22.40;40.00
36442;DHT22;73131;50.820;16.274;2024-01-30T11:26:04;22.10;40.30
36442;DHT22;73131;50.820;16.274;2024-01-30T11:29:09;21.40;40.50
36442;DHT22;73131;50.820;16.274;2024-01-30T11:32:22;21.20;40.90
36442;DHT22;73131;50.820;16.274;2024-01-30T11:35:35;21.90;41.00
36442;DHT22;73131;50.820;16.274;2024-01-30T11:38:44;20.80;41.00
36442;DHT22;73131;50.820;16.274;2024-01-30T11:41:54;18.10;43.50
36442;DHT22;73131;50.820;16.274;2024-01-30T11:45:08;15.20;48.10
36442;DHT22;73131;50.820;16.274;2024-01-30T11:48:13;13.30;51.80
36442;DHT22;73131;50.820;16.274;2024-01-30T11:51:22;11.90;54.70
36442;DHT22;73131;50.820;16.274;2024-01-30T11:54:29;11.10;57.10
36442;DHT22;73131;50.820;16.274;2024-01-30T11:57:33;10.40;59.30
36442;DHT22;73131;50.820;16.274;2024-01-30T12:00:58;9.70;60.80
36442;DHT22;73131;50.820;16.274;2024-01-30T12:04:04;9.20;62.70
36442;DHT22;73131;50.820;16.274;2024-01-30T12:07:15;8.90;64.10
36442;DHT22;73131;50.820;16.274;2024-01-30T12:10:24;8.60;65.30
36442;DHT22;73131;50.820;16.274;2024-01-30T12:13:29;8.40;67.00
36442;DHT22;73131;50.820;16.274;2024-01-30T12:16:35;8.20;68.80
36442;DHT22;73131;50.820;16.274;2024-01-30T12:19:39;8.10;69.70
36442;DHT22;73131;50.820;16.274;2024-01-30T12:22:49;8.00;71.60
36442;DHT22;73131;50.820;16.274;2024-01-30T12:26:01;7.80;73.40
36442;DHT22;73131;50.820;16.274;2024-01-30T12:29:11;7.80;75.40
36442;DHT22;73131;50.820;16.274;2024-01-30T12:32:24;7.70;77.50
36442;DHT22;73131;50.820;16.274;2024-01-30T12:35:33;7.70;79.80
36442;DHT22;73131;50.820;16.274;2024-01-30T12:38:42;7.60;80.60
36442;DHT22;73131;50.820;16.274;2024-01-30T12:41:48;7.50;81.70
36442;DHT22;73131;50.820;16.274;2024-01-30T12:45:13;7.50;82.30
36442;DHT22;73131;50.820;16.274;2024-01-30T12:48:26;7.40;83.70
36442;DHT22;73131;50.820;16.274;2024-01-30T12:51:37;7.40;85.80
36442;DHT22;73131;50.820;16.274;2024-01-30T12:54:43;7.40;87.50
36442;DHT22;73131;50.820;16.274;2024-01-30T12:57:59;7.40;88.00
36442;DHT22;73131;50.820;16.274;2024-01-30T13:01:04;7.30;89.70
36442;DHT22;73131;50.820;16.274;2024-01-30T13:04:05;7.20;90.20
36442;DHT22;73131;50.820;16.274;2024-01-30T13:07:28;7.10;91.00
36442;DHT22;73131;50.820;16.274;2024-01-30T13:10:34;7.10;91.10
36442;DHT22;73131;50.820;16.274;2024-01-30T13:13:37;7.20;91.50
36442;DHT22;73131;50.820;16.274;2024-01-30T13:17:04;7.20;91.70
36442;DHT22;73131;50.820;16.274;2024-01-30T13:20:08;7.20;92.20
36442;DHT22;73131;50.820;16.274;2024-01-30T13:23:21;7.20;92.60
36442;DHT22;73131;50.820;16.274;2024-01-30T13:26:33;7.10;93.10
36442;DHT22;73131;50.820;16.274;2024-01-30T13:29:41;7.20;93.00
36442;DHT22;73131;50.820;16.274;2024-01-30T13:33:05;7.20;92.90
36442;DHT22;73131;50.820;16.274;2024-01-30T13:36:15;7.20;93.10
36442;DHT22;73131;50.820;16.274;2024-01-30T13:39:17;7.30;92.60
36442;DHT22;73131;50.820;16.274;2024-01-30T13:42:18;7.40;92.20
36442;DHT22;73131;50.820;16.274;2024-01-30T13:45:25;7.30;92.10
36442;DHT22;73131;50.820;16.274;2024-01-30T13:48:40;7.30;91.80
36442;DHT22;73131;50.820;16.274;2024-01-30T13:51:43;7.20;91.70
36442;DHT22;73131;50.820;16.274;2024-01-30T13:55:02;7.10;92.10
36442;DHT22;73131;50.820;16.274;2024-01-30T13:58:06;6.90;93.10
36442;DHT22;73131;50.820;16.274;2024-01-30T14:01:10;6.90;93.30
36442;DHT22;73131;50.820;16.274;2024-01-30T14:04:13;6.80;94.00
36442;DHT22;73131;50.820;16.274;2024-01-30T14:07:17;6.70;94.90
36442;DHT22;73131;50.820;16.274;2024-01-30T14:10:19;6.50;95.50
36442;DHT22;73131;50.820;16.274;2024-01-30T14:13:22;6.40;96.10
36442;DHT22;73131;50.820;16.274;2024-01-30T14:16:23;6.40;96.70
36442;DHT22;73131;50.820;16.274;2024-01-30T14:19:29;6.40;96.60
36442;DHT22;73131;50.820;16.274;2024-01-30T14:22:33;6.40;97.10
36442;DHT22;73131;50.820;16.274;2024-01-30T14:25:35;6.30;97.70
36442;DHT22;73131;50.820;16.274;2024-01-30T14:28:36;6.30;97.20
36442;DHT22;73131;50.820;16.274;2024-01-30T14:31:39;6.30;97.40
36442;DHT22;73131;50.820;16.274;2024-01-30T14:34:48;6.30;97.80
36442;DHT22;73131;50.820;16.274;2024-01-30T14:37:53;6.30;97.60
36442;DHT22;73131;50.820;16.274;2024-01-30T14:40:56;6.30;97.80
36442;DHT22;73131;50.820;16.274;2024-01-30T14:43:57;6.30;98.10
36442;DHT22;73131;50.820;16.274;2024-01-30T14:47:00;6.30;98.30
36442;DHT22;73131;50.820;16.274;2024-01-30T14:50:04;6.30;98.40
36442;DHT22;73131;50.820;16.274;2024-01-30T14:53:08;6.20;98.40
36442;DHT22;73131;50.820;16.274;2024-01-30T14:56:11;6.20;99.00
36442;DHT22;73131;50.820;16.274;2024-01-30T14:59:12;6.10;99.10
36442;DHT22;73131;50.820;16.274;2024-01-30T15:02:13;6.10;99.70
36442;DHT22;73131;50.820;16.274;2024-01-30T15:05:19;6.00;99.90
36442;DHT22;73131;50.820;16.274;2024-01-30T15:08:22;6.00;99.90
36442;DHT22;73131;50.820;16.274;2024-01-30T15:11:23;5.90;99.90
36442;DHT22;73131;50.820;16.274;2024-01-30T15:14:29;5.90;99.90
36442;DHT22;73131;50.820;16.274;2024-01-30T15:17:32;5.80;99.90
36442;DHT22;73131;50.820;16.274;2024-01-30T15:20:35;5.80;99.90
36442;DHT22;73131;50.820;16.274;2024-01-30T15:23:37;5.70;99.90
36442;DHT22;73131;50.820;16.274;2024-01-30T15:26:37;5.70;99.90
36442;DHT22;73131;50.820;16.274;2024-01-30T15:29:39;5.60;99.90
36442;DHT22;73131;50.820;16.274;2024-01-30T15:32:43;5.60;99.90
36442;DHT22;73131;50.820;16.274;2024-01-30T15:35:44;5.60;99.90
36442;DHT22;73131;50.820;16.274;2024-01-30T15:38:45;5.70;99.90
36442;DHT22;73131;50.820;16.274;2024-01-30T15:41:49;5.70;99.90
36442;DHT22;73131;50.820;16.274;2024-01-30T15:44:50;5.70;99.90
36442;DHT22;73131;50.820;16.274;2024-01-30T15:47:54;5.70;99.90
36442;DHT22;73131;50.820;16.274;2024-01-30T15:50:58;5.60;99.90
36442;DHT22;73131;50.820;16.274;2024-01-30T15:53:59;5.60;99.90
36442;DHT22;73131;50.820;16.274;2024-01-30T15:57:00;5.50;99.90
36442;DHT22;73131;50.820;16.274;2024-01-30T16:00:01;5.40;99.90
36442;DHT22;73131;50.820;16.274;2024-01-30T16:03:04;5.30;99.90
36442;DHT22;73131;50.820;16.274;2024-01-30T16:06:08;5.30;99.90
36442;DHT22;73131;50.820;16.274;2024-01-30T16:09:12;5.30;99.90
36442;DHT22;73131;50.820;16.274;2024-01-30T16:12:17;5.20;99.90
36442;DHT22;73131;50.820;16.274;2024-01-30T16:15:24;5.20;99.90
36442;DHT22;73131;50.820;16.274;2024-01-30T16:18:33;5.10;99.90
36442;DHT22;73131;50.820;16.274;2024-01-30T16:21:36;5.20;99.90
36442;DHT22;73131;50.820;16.274;2024-01-30T16:24:38;5.20;99.90
36442;DHT22;73131;50.820;16.274;2024-01-30T16:27:44;5.10;99.90
36442;DHT22;73131;50.820;16.274;2024-01-30T16:30:45;5.10;99.90
36442;DHT22;73131;50.820;16.274;2024-01-30T16:33:47;5.00;99.90
36442;DHT22;73131;50.820;16.274;2024-01-30T16:36:49;4.90;99.90
36442;DHT22;73131;50.820;16.274;2024-01-30T16:39:50;4.80;99.90
36442;DHT22;73131;50.820;16.274;2024-01-30T16:42:54;4.80;99.90
36442;DHT22;73131;50.820;16.274;2024-01-30T16:45:55;4.80;99.90
36442;DHT22;73131;50.820;16.274;2024-01-30T16:48:56;4.80;99.90
36442;DHT22;73131;50.820;16.274;2024-01-30T16:51:57;4.80;99.90
36442;DHT22;73131;50.820;16.274;2024-01-30T16:54:59;4.70;99.90
36442;DHT22;73131;50.820;16.274;2024-01-30T16:58:04;4.80;99.90
36442;DHT22;73131;50.820;16.274;2024-01-30T17:01:06;4.70;99.90
36442;DHT22;73131;50.820;16.274;2024-01-30T17:04:10;4.80;99.90
36442;DHT22;73131;50.820;16.274;2024-01-30T17:07:14;4.70;99.90
36442;DHT22;73131;50.820;16.274;2024-01-30T17:10:19;4.70;99.90
36442;DHT22;73131;50.820;16.274;2024-01-30T17:13:25;4.70;99.90
36442;DHT22;73131;50.820;16.274;2024-01-30T17:16:26;4.70;99.90
36442;DHT22;73131;50.820;16.274;2024-01-30T17:19:28;4.60;99.90
36442;DHT22;73131;50.820;16.274;2024-01-30T17:22:31;4.60;99.90
36442;DHT22;73131;50.820;16.274;2024-01-30T17:25:35;4.60;99.90
36442;DHT22;73131;50.820;16.274;2024-01-30T17:28:37;4.60;99.90
36442;DHT22;73131;50.820;16.274;2024-01-30T17:31:38;4.60;99.90
36442;DHT22;73131;50.820;16.274;2024-01-30T17:34:42;4.60;99.90
36442;DHT22;73131;50.820;16.274;2024-01-30T17:37:44;4.60;99.90
36442;DHT22;73131;50.820;16.274;2024-01-30T17:40:48;4.60;99.90
36442;DHT22;73131;50.820;16.274;2024-01-30T17:43:52;4.60;99.90
36442;DHT22;73131;50.820;16.274;2024-01-30T17:46:53;4.60;99.90
36442;DHT22;73131;50.820;16.274;2024-01-30T17:49:58;4.60;99.90
36442;DHT22;73131;50.820;16.274;2024-01-30T17:52:59;4.60;99.90
36442;DHT22;73131;50.820;16.274;2024-01-30T17:56:05;4.60;99.90
36442;DHT22;73131;50.820;16.274;2024-01-30T17:59:14;4.60;99.90
36442;DHT22;73131;50.820;16.274;2024-01-30T18:02:25;4.50;99.90
36442;DHT22;73131;50.820;16.274;2024-01-30T18:05:26;4.50;99.90
36442;DHT22;73131;50.820;16.274;2024-01-30T18:08:34;4.50;99.90
36442;DHT22;73131;50.820;16.274;2024-01-30T18:11:42;4.40;99.90
36442;DHT22;73131;50.820;16.274;2024-01-30T18:14:48;4.40;99.90
36442;DHT22;73131;50.820;16.274;2024-01-30T18:17:49;4.40;99.90
36442;DHT22;73131;50.820;16.274;2024-01-30T18:20:53;4.70;99.90
36442;DHT22;73131;50.820;16.274;2024-01-30T18:24:03;4.80;99.90
36442;DHT22;73131;50.820;16.274;2024-01-30T18:27:12;4.70;99.90
36442;DHT22;73131;50.820;16.274;2024-01-30T18:30:15;4.60;99.90
36442;DHT22;73131;50.820;16.274;2024-01-30T18:33:26;4.50;99.90
36442;DHT22;73131;50.820;16.274;2024-01-30T18:36:28;4.40;99.90
36442;DHT22;73131;50.820;16.274;2024-01-30T18:39:37;4.30;99.90
36442;DHT22;73131;50.820;16.274;2024-01-30T18:42:44;4.30;99.90
36442;DHT22;73131;50.820;16.274;2024-01-30T18:45:54;4.30;99.90
36442;DHT22;73131;50.820;16.274;2024-01-30T18:48:59;4.30;99.90
36442;DHT22;73131;50.820;16.274;2024-01-30T18:52:12;4.30;99.90
36442;DHT22;73131;50.820;16.274;2024-01-30T18:55:17;4.20;99.90
36442;DHT22;73131;50.820;16.274;2024-01-30T18:58:19;4.10;99.90
36442;DHT22;73131;50.820;16.274;2024-01-30T19:01:23;4.10;99.90
36442;DHT22;73131;50.820;16.274;2024-01-30T19:04:27;4.00;99.90
36442;DHT22;73131;50.820;16.274;2024-01-30T19:07:30;4.00;99.90
36442;DHT22;73131;50.820;16.274;2024-01-30T19:10:35;4.00;99.90
36442;DHT22;73131;50.820;16.274;2024-01-30T19:13:39;4.00;99.90
36442;DHT22;73131;50.820;16.274;2024-01-30T19:16:52;4.00;99.90
36442;DHT22;73131;50.820;16.274;2024-01-30T19:19:54;3.90;99.90
36442;DHT22;73131;50.820;16.274;2024-01-30T19:22:56;3.90;99.90
36442;DHT22;73131;50.820;16.274;2024-01-30T19:25:58;3.90;99.90
36442;DHT22;73131;50.820;16.274;2024-01-30T19:29:02;3.90;99.90
36442;DHT22;73131;50.820;16.274;2024-01-30T19:32:03;3.80;99.90
36442;DHT22;73131;50.820;16.274;2024-01-30T19:35:14;3.70;99.90
36442;DHT22;73131;50.820;16.274;2024-01-30T19:38:15;3.80;99.90